Time;durP1;ratioP1;P1;durP2;ratioP2;P2;SDS_P1;SDS_P2;PMS_P1;PMS_P2;Temp;Humidity;BMP_temperature;BMP_pressure;BME280_temperature;BME280_humidity;BME280_pressure;Samples;Min_cycle;Max_cycle;Signal;HPM_P1;HPM_P2
2021/06/04 00:00:27;;;;;;;9.13;6.60;;;;;;;18.23;47.72;95759.72;5055196;28;20447;-70
2021/06/04 00:02:57;;;;;;;8.73;6.00;;;;;;;18.34;47.08;95755.88;5049633;28;20480;-68
2021/06/04 00:05:30;;;;;;;10.27;6.27;;;;;;;18.41;45.99;95745.75;5048448;28;20824;-73
2021/06/04 00:07:57;;;;;;;9.53;5.80;;;;;;;18.52;46.22;95747.19;5063092;28;20576;-70
2021/06/04 00:10:30;;;;;;;6.93;5.70;;;;;;;18.76;45.77;95758.59;5072010;28;20430;-71
2021/06/04 00:13:16;;;;;;;9.73;5.70;;;;;;;18.77;45.31;95743.44;5073065;28;20465;-69
2021/06/04 00:15:43;;;;;;;11.10;5.00;;;;;;;18.52;44.56;95741.88;5073002;28;20449;-66
2021/06/04 00:18:11;;;;;;;7.97;4.80;;;;;;;18.71;43.60;95745.38;5057772;28;20439;-70
2021/06/04 00:20:38;;;;;;;6.27;4.83;;;;;;;18.69;44.13;95747.53;5059488;28;20897;-74
2021/06/04 00:23:06;;;;;;;11.03;4.47;;;;;;;18.64;44.29;95742.28;5059296;28;20431;-71
2021/06/04 00:25:33;;;;;;;6.53;4.73;;;;;;;18.74;43.26;95736.84;5052295;28;20431;-69
2021/06/04 00:28:00;;;;;;;6.20;4.40;;;;;;;18.76;43.64;95734.69;5052594;28;20869;-71
2021/06/04 00:30:27;;;;;;;6.73;4.57;;;;;;;18.84;43.18;95743.88;5052144;28;20865;-70
2021/06/04 00:32:54;;;;;;;5.50;4.40;;;;;;;18.76;42.49;95742.66;5052304;28;20447;-71
2021/06/04 00:35:23;;;;;;;5.03;4.13;;;;;;;18.44;42.83;95737.22;5050352;28;20498;-74
2021/06/04 00:37:50;;;;;;;6.87;3.83;;;;;;;18.56;42.32;95732.28;5064092;28;20438;-72
2021/06/04 00:40:22;;;;;;;7.00;4.30;;;;;;;18.43;42.48;95726.91;5057888;28;20993;-70
2021/06/04 00:42:50;;;;;;;5.67;4.10;;;;;;;18.74;41.80;95736.84;5062038;28;20492;-70
2021/06/04 00:45:28;;;;;;;4.20;3.80;;;;;;;18.52;41.55;95741.13;5053378;28;20979;-72
2021/06/04 00:47:56;;;;;;;6.37;3.73;;;;;;;18.55;42.77;95730.72;5061713;28;20477;-74
2021/06/04 00:50:34;;;;;;;5.93;4.67;;;;;;;18.52;43.00;95736.59;5053063;28;20442;-74
2021/06/04 00:53:05;;;;;;;4.17;3.70;;;;;;;18.78;41.55;95732.53;5059303;28;20443;-72
2021/06/04 00:55:34;;;;;;;5.53;3.70;;;;;;;18.60;41.01;95738.63;5067907;28;20879;-72
2021/06/04 00:58:05;;;;;;;5.60;3.80;;;;;;;18.46;41.03;95731.63;5070278;28;20434;-71
2021/06/04 01:00:40;;;;;;;7.40;4.00;;;;;;;18.55;40.98;95725.41;5069733;28;20536;-71
2021/06/04 01:03:09;;;;;;;9.57;4.70;;;;;;;18.55;41.41;95725.41;5060680;28;20447;-68
2021/06/04 01:05:40;;;;;;;5.43;3.67;;;;;;;18.48;41.28;95738.25;5055606;28;20465;-72
2021/06/04 01:08:29;;;;;;;8.27;3.77;;;;;;;18.42;41.96;95738.56;5052814;28;20491;-68
2021/06/04 01:11:06;;;;;;;6.00;4.07;;;;;;;18.61;41.36;95729.56;5070547;28;20488;-70
2021/06/04 01:14:02;;;;;;;7.30;3.60;;;;;;;18.38;40.86;95740.19;5066437;28;20449;-72
2021/06/04 01:16:32;;;;;;;5.23;3.80;;;;;;;18.53;41.38;95732.88;5050655;28;20538;-71
2021/06/04 01:19:15;;;;;;;4.63;3.67;;;;;;;18.70;41.02;95738.47;5070170;28;20825;-69
2021/06/04 01:21:54;;;;;;;4.80;3.60;;;;;;;18.65;40.18;95743.84;5069195;28;20438;-71
2021/06/04 01:24:42;;;;;;;4.90;3.43;;;;;;;18.48;40.10;95740.91;5061816;28;20501;-68
2021/06/04 01:27:17;;;;;;;6.30;3.80;;;;;;;18.65;40.12;95740.44;5055772;28;20864;-71
2021/06/04 01:29:51;;;;;;;4.67;3.50;;;;;;;18.58;40.44;95740.75;5069413;28;20514;-70
2021/06/04 01:32:23;;;;;;;4.53;3.80;;;;;;;18.68;40.38;95740.66;5052363;28;20438;-71
2021/06/04 01:35:00;;;;;;;6.30;3.47;;;;;;;18.69;41.02;95741.41;5066231;28;20478;-69
2021/06/04 01:37:31;;;;;;;5.27;3.90;;;;;;;18.66;41.23;95748.09;5068743;28;21046;-70
2021/06/04 01:40:34;;;;;;;5.90;3.70;;;;;;;18.60;41.28;95748.44;5056792;28;20895;-69
2021/06/04 01:43:28;;;;;;;7.67;3.77;;;;;;;18.68;41.33;95740.66;5069378;28;20442;-69
2021/06/04 01:46:02;;;;;;;9.87;4.10;;;;;;;18.61;41.86;95752.69;5057890;28;20971;-70
2021/06/04 01:48:38;;;;;;;5.07;3.83;;;;;;;18.60;42.02;95743.94;5068945;28;20477;-70
2021/06/04 01:51:19;;;;;;;9.37;4.50;;;;;;;18.57;41.70;95739.19;5060240;28;20434;-70
2021/06/04 01:53:56;;;;;;;6.23;4.10;;;;;;;18.55;41.52;95738.69;5065898;28;20824;-66
2021/06/04 01:56:32;;;;;;;8.23;4.30;;;;;;;18.50;42.16;95741.41;5059350;28;20557;-71
2021/06/04 01:59:05;;;;;;;6.83;4.20;;;;;;;18.46;42.23;95742.25;5067948;28;20470;-70
2021/06/04 02:01:40;;;;;;;10.33;4.27;;;;;;;18.29;42.78;95747.97;5070286;28;20839;-69
2021/06/04 02:04:11;;;;;;;6.13;3.83;;;;;;;18.23;43.08;95741.16;5066339;28;20969;-72
2021/06/04 02:06:47;;;;;;;5.80;4.00;;;;;;;18.29;43.17;95737.38;5068345;28;20442;-71
2021/06/04 02:09:20;;;;;;;4.00;3.50;;;;;;;18.42;42.46;95757.94;5069120;28;20470;-72
2021/06/04 02:11:54;;;;;;;7.23;4.43;;;;;;;18.46;42.47;95743.03;5068930;28;20453;-70
2021/06/04 02:14:35;;;;;;;6.33;4.37;;;;;;;18.40;42.75;95741.50;5058419;28;20447;-73
2021/06/04 02:17:16;;;;;;;6.30;4.07;;;;;;;18.44;43.46;95750.50;5055271;28;20940;-72
2021/06/04 02:19:49;;;;;;;6.30;4.23;;;;;;;18.37;43.65;95742.06;5069230;28;20511;-67
2021/06/04 02:22:47;;;;;;;6.17;4.17;;;;;;;18.42;43.60;95754.50;5056772;28;20434;-68
2021/06/04 02:25:32;;;;;;;9.73;4.37;;;;;;;18.17;43.83;95760.88;5056018;28;20522;-70
2021/06/04 02:28:09;;;;;;;7.60;4.40;;;;;;;18.05;43.61;95747.19;5070445;28;20472;-69
2021/06/04 02:30:42;;;;;;;5.97;4.57;;;;;;;18.12;43.38;95764.34;5055602;28;20986;-67
2021/06/04 02:33:19;;;;;;;10.37;4.90;;;;;;;18.15;44.07;95755.03;5069572;28;20438;-67
2021/06/04 02:35:56;;;;;;;4.97;4.03;;;;;;;18.23;44.12;95764.25;5056076;28;20438;-68
2021/06/04 02:38:32;;;;;;;7.33;4.40;;;;;;;18.21;43.96;95767.16;5069912;28;20529;-66
2021/06/04 02:41:14;;;;;;;10.53;4.73;;;;;;;18.27;45.44;95770.56;5070441;28;20532;-67
2021/06/04 02:43:49;;;;;;;7.90;4.23;;;;;;;18.19;45.42;95774.63;5055000;28;20508;-70
2021/06/04 02:46:37;;;;;;;6.67;4.17;;;;;;;18.19;44.82;95775.41;5059523;28;20503;-72
2021/06/04 02:49:09;;;;;;;9.80;4.40;;;;;;;18.25;45.16;95781.44;5055091;28;20510;-72
2021/06/04 02:51:42;;;;;;;6.20;4.50;;;;;;;18.23;45.90;95775.63;5056172;28;20542;-71
2021/06/04 02:54:25;;;;;;;8.37;4.73;;;;;;;18.09;45.77;95778.19;5069076;28;20449;-72
2021/06/04 02:56:58;;;;;;;7.67;4.70;;;;;;;18.08;46.17;95776.56;5068772;28;20826;-71
2021/06/04 02:59:27;;;;;;;8.60;5.03;;;;;;;17.97;46.06;95777.75;5070248;28;20512;-70
2021/06/04 03:02:06;;;;;;;10.63;5.23;;;;;;;18.02;46.58;95780.38;5068753;28;20488;-74
2021/06/04 03:04:42;;;;;;;8.43;5.20;;;;;;;17.91;46.21;95772.78;5056062;28;20529;-72
2021/06/04 03:07:19;;;;;;;10.00;5.37;;;;;;;17.96;46.39;95786.00;5048554;28;20438;-69
2021/06/04 03:09:46;;;;;;;12.10;5.23;;;;;;;17.95;46.25;95790.53;5048834;28;20996;-72
2021/06/04 03:12:18;;;;;;;6.97;4.67;;;;;;;17.90;46.41;95787.13;5049762;28;20443;-71
2021/06/04 03:14:49;;;;;;;6.30;5.00;;;;;;;17.90;46.40;95787.13;5049561;28;20894;-69
2021/06/04 03:17:21;;;;;;;9.20;5.20;;;;;;;17.86;46.32;95786.88;5062598;28;20525;-71
2021/06/04 03:19:48;;;;;;;10.97;5.27;;;;;;;17.88;46.81;95789.25;5063468;28;20441;-71
2021/06/04 03:22:32;;;;;;;6.47;5.10;;;;;;;18.02;46.56;95787.53;5063957;28;20431;-73
2021/06/04 03:25:24;;;;;;;6.77;5.53;;;;;;;17.99;46.45;95790.75;5064973;28;20857;-69
2021/06/04 03:27:53;;;;;;;7.40;4.93;;;;;;;17.93;46.80;95797.16;5059612;28;20542;-71
2021/06/04 03:30:33;;;;;;;9.07;5.40;;;;;;;17.94;46.77;95801.38;5078937;28;20512;-69
2021/06/04 03:33:03;;;;;;;5.70;5.20;;;;;;;17.97;47.21;95800.84;5048397;28;20439;-71
2021/06/04 03:35:35;;;;;;;7.80;5.80;;;;;;;17.89;47.74;95785.53;5051718;28;20536;-68
2021/06/04 03:38:03;;;;;;;10.90;5.27;;;;;;;17.80;47.16;95797.81;5069125;28;20512;-70
2021/06/04 03:40:32;;;;;;;7.03;5.50;;;;;;;17.85;46.67;95800.41;5056286;28;20453;-70
2021/06/04 03:43:09;;;;;;;9.83;5.57;;;;;;;17.64;47.36;95793.69;5069710;28;20438;-71
2021/06/04 03:45:39;;;;;;;8.27;5.37;;;;;;;17.84;47.60;95801.50;5072650;28;20442;-72
2021/06/04 03:48:10;;;;;;;6.30;4.87;;;;;;;17.85;48.01;95808.34;5070974;28;20498;-69
2021/06/04 03:50:40;;;;;;;10.30;4.87;;;;;;;17.76;47.45;95802.06;5072273;28;20446;-73
2021/06/04 03:53:09;;;;;;;9.47;5.90;;;;;;;17.79;48.24;95797.00;5069253;28;20444;-68
2021/06/04 03:55:41;;;;;;;7.67;5.40;;;;;;;17.83;47.96;95802.53;5071621;28;20434;-68
2021/06/04 03:58:12;;;;;;;11.00;5.93;;;;;;;17.96;48.20;95807.19;5067984;28;20465;-69
2021/06/04 04:00:48;;;;;;;19.00;6.50;;;;;;;17.93;49.93;95803.25;5069069;28;20446;-70
2021/06/04 04:03:17;;;;;;;12.23;6.10;;;;;;;17.88;49.56;95811.25;5054359;28;20472;-70
2021/06/04 04:05:45;;;;;;;13.10;6.13;;;;;;;17.82;49.86;95811.56;5061356;28;20465;-70
2021/06/04 04:08:16;;;;;;;14.10;5.93;;;;;;;17.94;49.90;95809.34;5052998;28;20498;-69
2021/06/04 04:10:43;;;;;;;10.00;6.77;;;;;;;17.79;52.62;95823.53;5051621;28;20446;-68
2021/06/04 04:13:14;;;;;;;10.40;6.40;;;;;;;17.90;50.71;95825.03;5053135;28;20931;-69
2021/06/04 04:15:40;;;;;;;15.37;7.13;;;;;;;17.83;49.79;95819.25;5060648;28;20434;-69
2021/06/04 04:18:07;;;;;;;16.23;7.40;;;;;;;17.83;50.73;95829.06;5059454;28;20454;-71
2021/06/04 04:20:44;;;;;;;13.20;6.27;;;;;;;17.72;50.43;95824.91;5053046;28;20453;-69
2021/06/04 04:23:17;;;;;;;11.27;6.63;;;;;;;17.77;49.90;95819.56;5056214;28;20463;-68
2021/06/04 04:25:46;;;;;;;15.77;6.13;;;;;;;17.75;50.00;95817.22;5055407;28;20438;-70
2021/06/04 04:28:26;;;;;;;12.23;7.10;;;;;;;17.76;49.33;95823.28;5068833;28;20466;-70
2021/06/04 04:30:55;;;;;;;16.30;7.47;;;;;;;17.82;49.08;95824.84;5071491;28;20493;-73
2021/06/04 04:33:22;;;;;;;18.70;8.20;;;;;;;17.83;49.42;95823.75;5072097;28;20457;-70
2021/06/04 04:35:50;;;;;;;28.83;8.73;;;;;;;17.84;49.18;95822.69;5059746;28;20458;-69
2021/06/04 04:38:20;;;;;;;16.70;9.73;;;;;;;17.97;49.17;95835.31;5072389;28;20426;-69
2021/06/04 04:40:52;;;;;;;57.90;47.87;;;;;;;18.22;49.15;95837.75;5063971;28;20442;-70
2021/06/04 04:43:19;;;;;;;69.77;56.30;;;;;;;18.28;48.69;95836.63;5051993;28;20450;-68
2021/06/04 04:45:46;;;;;;;18.00;11.33;;;;;;;18.11;48.28;95836.25;5052233;28;20431;-69
2021/06/04 04:48:13;;;;;;;13.80;7.67;;;;;;;17.96;48.70;95841.69;5052449;28;20454;-71
2021/06/04 04:50:40;;;;;;;14.70;7.20;;;;;;;17.93;49.16;95839.59;5066640;28;20826;-67
2021/06/04 04:53:08;;;;;;;9.20;7.10;;;;;;;17.98;48.31;95842.19;5063986;28;20438;-76
2021/06/04 04:55:40;;;;;;;13.13;7.10;;;;;;;17.85;48.63;95837.53;5070432;28;20438;-71
2021/06/04 04:58:09;;;;;;;9.60;6.97;;;;;;;17.88;48.22;95848.38;5064500;28;20451;-70
2021/06/04 05:00:39;;;;;;;9.03;6.50;;;;;;;17.91;48.59;95845.19;5064864;28;20450;-70
2021/06/04 05:03:07;;;;;;;15.37;11.67;;;;;;;18.05;47.84;95853.25;5072177;28;20438;-70
2021/06/04 05:05:35;;;;;;;100.17;85.60;;;;;;;17.99;48.00;95855.16;5065007;28;20433;-68
2021/06/04 05:08:03;;;;;;;10.20;7.43;;;;;;;17.94;47.98;95857.06;5057210;28;20458;-66
2021/06/04 05:10:31;;;;;;;7.40;6.47;;;;;;;18.00;47.90;95855.97;5058569;28;20434;-69
2021/06/04 05:13:01;;;;;;;15.87;7.00;;;;;;;17.98;47.75;95852.81;5058094;28;20549;-67
2021/06/04 05:15:31;;;;;;;11.90;7.03;;;;;;;17.90;48.21;95845.47;5049812;28;20431;-68
2021/06/04 05:18:00;;;;;;;12.27;6.90;;;;;;;17.90;47.63;95853.41;5049638;28;20490;-68
2021/06/04 05:20:27;;;;;;;13.33;6.93;;;;;;;17.80;47.39;95864.09;5062797;28;20440;-67
2021/06/04 05:22:57;;;;;;;17.03;7.20;;;;;;;18.04;47.23;95864.97;5061115;28;20907;-69
2021/06/04 05:25:32;;;;;;;13.43;6.83;;;;;;;18.01;47.88;95868.19;5069664;28;20500;-67
2021/06/04 05:28:00;;;;;;;17.67;8.03;;;;;;;18.03;48.31;95861.50;5060545;28;20484;-67
2021/06/04 05:30:33;;;;;;;8.17;6.63;;;;;;;18.12;48.57;95861.69;5064710;28;20485;-69
2021/06/04 05:33:00;;;;;;;13.90;6.77;;;;;;;18.14;48.85;95862.22;5051449;28;20834;-66
2021/06/04 05:35:29;;;;;;;16.00;8.93;;;;;;;18.26;48.98;95865.28;5065285;28;20441;-68
2021/06/04 05:37:57;;;;;;;19.00;7.43;;;;;;;18.24;49.69;95867.44;5063769;28;20958;-68
2021/06/04 05:40:28;;;;;;;17.53;7.50;;;;;;;18.33;50.23;95871.06;5066032;28;20479;-68
2021/06/04 05:42:56;;;;;;;11.10;6.90;;;;;;;18.14;49.02;95878.91;5062599;28;20470;-70
2021/06/04 05:45:28;;;;;;;18.97;7.37;;;;;;;18.28;49.08;95865.81;5070724;28;20473;-69
2021/06/04 05:47:56;;;;;;;17.60;7.37;;;;;;;18.37;49.32;95876.59;5071307;28;21035;-66
2021/06/04 05:50:27;;;;;;;19.50;7.97;;;;;;;18.49;49.31;95875.19;5070465;28;20512;-70
2021/06/04 05:52:54;;;;;;;13.07;7.13;;;;;;;18.38;49.54;95873.66;5071512;28;20477;-71
2021/06/04 05:55:25;;;;;;;11.27;7.40;;;;;;;18.33;49.77;95881.69;5070289;28;20480;-67
2021/06/04 05:57:53;;;;;;;12.97;7.63;;;;;;;18.20;49.93;95861.09;5071607;28;20444;-70
2021/06/04 06:00:25;;;;;;;13.67;7.20;;;;;;;18.35;49.47;95876.88;5070331;28;20445;-66
2021/06/04 06:02:55;;;;;;;12.93;7.40;;;;;;;18.25;49.38;95874.31;5062504;28;20537;-68
2021/06/04 06:05:22;;;;;;;17.00;7.07;;;;;;;18.26;49.69;95878.56;5050538;28;20458;-68
2021/06/04 06:07:49;;;;;;;16.60;7.97;;;;;;;18.21;49.96;95878.59;5051226;28;20449;-67
2021/06/04 06:10:16;;;;;;;15.37;7.90;;;;;;;18.38;49.12;95883.47;5055166;28;20504;-70
2021/06/04 06:12:43;;;;;;;14.70;7.70;;;;;;;18.34;49.19;95899.16;5059448;28;20457;-65
2021/06/04 06:15:11;;;;;;;17.33;8.33;;;;;;;18.46;48.71;95888.22;5049849;28;20456;-67
2021/06/04 06:17:38;;;;;;;22.43;7.60;;;;;;;18.52;48.34;95890.53;5059557;28;20437;-67
2021/06/04 06:20:09;;;;;;;14.40;7.47;;;;;;;18.48;49.03;95894.84;5056386;28;20442;-67
2021/06/04 06:22:36;;;;;;;12.63;6.90;;;;;;;18.45;49.99;95884.75;5070465;28;20449;-68
2021/06/04 06:25:15;;;;;;;12.20;7.27;;;;;;;18.66;48.95;95888.81;5055050;28;20440;-67
2021/06/04 06:27:43;;;;;;;11.03;6.77;;;;;;;18.53;49.65;95886.81;5059366;28;20434;-66
2021/06/04 06:30:16;;;;;;;15.33;7.33;;;;;;;18.57;48.93;95887.84;5069230;28;20489;-66
2021/06/04 06:32:43;;;;;;;18.27;8.20;;;;;;;18.81;47.58;95890.50;5069083;28;20448;-67
2021/06/04 06:35:11;;;;;;;16.67;8.13;;;;;;;18.89;46.33;95885.38;5069924;28;20442;-67
2021/06/04 06:37:38;;;;;;;20.30;8.03;;;;;;;18.60;48.00;95881.97;5070399;28;20487;-67
2021/06/04 06:40:08;;;;;;;16.10;7.63;;;;;;;18.52;47.18;95885.22;5055803;28;20451;-67
2021/06/04 06:42:35;;;;;;;16.23;8.97;;;;;;;18.22;47.92;95888.16;5070489;28;20884;-68
2021/06/04 06:45:06;;;;;;;15.00;8.47;;;;;;;18.31;47.97;95878.50;5055517;28;20446;-68
2021/06/04 06:47:32;;;;;;;15.37;9.53;;;;;;;18.43;47.19;95884.25;5062857;28;20435;-67
2021/06/04 06:50:00;;;;;;;15.57;8.10;;;;;;;18.55;47.63;95881.22;5063506;28;20466;-68
2021/06/04 06:52:29;;;;;;;14.53;7.20;;;;;;;18.59;46.01;95885.72;5064147;28;20941;-68
2021/06/04 06:54:56;;;;;;;15.63;6.97;;;;;;;18.92;45.31;95879.47;5061993;28;20496;-67
2021/06/04 06:57:23;;;;;;;14.97;7.07;;;;;;;18.98;46.04;95878.34;5069676;28;20438;-67
2021/06/04 06:59:50;;;;;;;20.47;6.87;;;;;;;18.91;45.92;95877.09;5060036;28;20443;-68
2021/06/04 07:02:19;;;;;;;13.63;7.37;;;;;;;18.88;46.43;95883.78;5067706;28;20846;-69
2021/06/04 07:04:47;;;;;;;20.00;8.00;;;;;;;18.91;46.87;95874.44;5068482;28;20437;-68
2021/06/04 07:07:15;;;;;;;14.50;7.30;;;;;;;18.92;46.23;95866.19;5059227;28;20441;-67
2021/06/04 07:09:43;;;;;;;12.50;7.37;;;;;;;19.10;45.67;95876.06;5070187;28;20470;-68
2021/06/04 07:12:10;;;;;;;12.67;6.63;;;;;;;19.15;46.68;95862.75;5063870;28;20439;-68
2021/06/04 07:14:39;;;;;;;14.97;7.10;;;;;;;19.10;46.29;95870.75;5050172;28;20461;-69
2021/06/04 07:17:06;;;;;;;13.43;8.37;;;;;;;19.28;45.44;95866.56;5063477;28;20501;-68
2021/06/04 07:19:35;;;;;;;15.27;8.80;;;;;;;19.55;46.10;95871.25;5051353;28;20987;-66
2021/06/04 07:22:04;;;;;;;15.07;7.10;;;;;;;19.78;43.89;95865.09;5072107;28;20446;-66
2021/06/04 07:24:31;;;;;;;13.67;6.33;;;;;;;19.76;44.71;95867.25;5074321;28;20196;-66
2021/06/04 07:26:59;;;;;;;11.73;6.13;;;;;;;19.98;43.33;95865.53;5059659;28;20451;-67
2021/06/04 07:29:31;;;;;;;11.70;5.50;;;;;;;20.17;42.51;95868.19;5063943;28;20483;-69
2021/06/04 07:31:59;;;;;;;11.20;5.53;;;;;;;20.17;41.40;95862.88;5069795;28;20503;-66
2021/06/04 07:34:28;;;;;;;9.33;5.87;;;;;;;20.09;42.13;95869.63;5073324;28;20430;-68
2021/06/04 07:36:57;;;;;;;14.40;6.45;;;;;;;19.91;43.05;95869.66;5061796;28;20433;-66
2021/06/04 07:39:28;;;;;;;10.53;5.80;;;;;;;19.84;43.00;95869.22;5073230;28;20203;-66
2021/06/04 07:41:56;;;;;;;12.70;5.20;;;;;;;19.85;42.86;95870.81;5073226;28;20194;-67
2021/06/04 07:44:24;;;;;;;15.53;5.93;;;;;;;19.87;43.75;95847.38;5063967;28;20193;-68
2021/06/04 07:46:53;;;;;;;18.77;6.43;;;;;;;20.21;43.67;95869.19;5052865;28;20856;-67
2021/06/04 07:49:21;;;;;;;17.50;7.00;;;;;;;20.31;43.34;95868.25;5061584;28;20815;-67
2021/06/04 07:51:55;;;;;;;13.30;6.10;;;;;;;20.20;43.52;95872.94;5073428;28;20478;-68
2021/06/04 07:54:25;;;;;;;11.50;5.70;;;;;;;20.32;41.99;95865.28;5073209;28;20813;-66
2021/06/04 07:56:53;;;;;;;11.97;5.50;;;;;;;20.46;42.28;95871.41;5072875;28;20946;-69
2021/06/04 07:59:20;;;;;;;7.63;5.13;;;;;;;20.64;40.78;95873.22;5073811;28;20496;-67
2021/06/04 08:01:47;;;;;;;11.37;5.30;;;;;;;20.73;41.31;95871.44;5073184;28;20465;-69
2021/06/04 08:04:15;;;;;;;8.20;4.80;;;;;;;20.75;40.51;95874.59;5071030;28;20821;-68
2021/06/04 08:06:42;;;;;;;8.70;5.00;;;;;;;20.92;40.75;95876.69;5055123;28;20199;-68
2021/06/04 08:09:12;;;;;;;9.30;4.13;;;;;;;20.97;39.91;95872.03;5062846;28;20602;-69
2021/06/04 08:11:47;;;;;;;7.03;4.20;;;;;;;21.13;39.77;95880.53;5073215;28;20286;-66
2021/06/04 08:14:18;;;;;;;10.57;4.43;;;;;;;21.20;38.94;95875.63;5063091;28;20529;-69
2021/06/04 08:16:46;;;;;;;10.40;4.90;;;;;;;21.40;39.95;95875.19;5055398;28;20211;-65
2021/06/04 08:19:15;;;;;;;8.73;4.30;;;;;;;21.62;38.70;95871.78;5064024;28;20494;-67
2021/06/04 08:21:47;;;;;;;12.90;3.97;;;;;;;21.78;38.08;95881.03;5066834;28;20287;-67
2021/06/04 08:24:19;;;;;;;7.40;3.80;;;;;;;21.60;37.57;95873.97;5052706;28;20211;-68
2021/06/04 08:26:48;;;;;;;6.80;3.77;;;;;;;21.52;36.69;95856.00;5067170;28;20246;-70
2021/06/04 08:29:15;;;;;;;12.13;3.57;;;;;;;21.77;35.61;95874.13;5072412;28;20704;-71
2021/06/04 08:31:43;;;;;;;7.40;3.20;;;;;;;21.49;35.50;95878.75;5072585;28;20562;-68
2021/06/04 08:34:12;;;;;;;6.03;3.23;;;;;;;21.82;35.27;95874.03;5066327;28;20196;-66
2021/06/04 08:36:42;;;;;;;4.50;3.00;;;;;;;22.13;34.39;95872.22;5054264;28;20204;-66
2021/06/04 08:39:22;;;;;;;5.60;3.37;;;;;;;22.13;35.05;95861.53;5072591;28;20749;-68
2021/06/04 08:42:31;;;;;;;4.13;3.20;;;;;;;22.28;34.92;95863.81;5072542;28;20204;-67
2021/06/04 08:45:08;;;;;;;5.90;3.30;;;;;;;22.22;35.85;95865.06;5066116;28;20317;-69
2021/06/04 08:47:38;;;;;;;6.93;3.17;;;;;;;21.97;33.25;95874.44;5072526;28;20203;-69
2021/06/04 08:50:42;;;;;;;6.47;3.17;;;;;;;22.21;32.30;95862.69;5071919;28;20225;-70
2021/06/04 08:53:53;;;;;;;10.13;2.90;;;;;;;22.33;31.47;95866.38;5063606;28;20658;-69
2021/06/04 08:56:29;;;;;;;3.63;2.70;;;;;;;22.58;31.53;95862.28;5062306;28;20227;-68
2021/06/04 08:59:00;;;;;;;3.77;2.90;;;;;;;22.71;31.94;95864.88;5068571;28;20192;-66
2021/06/04 09:01:47;;;;;;;3.60;2.70;;;;;;;22.72;31.81;95853.06;5062072;28;20192;-67
2021/06/04 09:04:25;;;;;;;4.17;2.90;;;;;;;23.25;30.86;95865.53;5057750;28;20195;-70
2021/06/04 09:07:13;;;;;;;4.83;2.70;;;;;;;23.34;31.71;95866.34;5071950;28;20203;-69
2021/06/04 09:09:46;;;;;;;6.60;2.80;;;;;;;23.44;29.96;95864.16;5070941;28;20251;-68
2021/06/04 09:12:17;;;;;;;7.30;2.80;;;;;;;23.29;30.24;95861.09;5065007;28;20230;-67
2021/06/04 09:14:45;;;;;;;7.70;3.70;;;;;;;23.30;30.68;95862.72;5051484;28;20204;-70
2021/06/04 09:17:25;;;;;;;3.17;2.87;;;;;;;23.42;30.21;95865.56;5052487;28;20212;-69
2021/06/04 09:20:12;;;;;;;3.83;2.60;;;;;;;22.92;28.48;95857.88;5065394;28;20728;-66
2021/06/04 09:22:45;;;;;;;4.33;2.30;;;;;;;22.74;29.08;95860.78;5071647;28;20215;-67
2021/06/04 09:25:16;;;;;;;5.70;2.83;;;;;;;23.01;29.87;95861.34;5058278;28;20254;-69
2021/06/04 09:27:47;;;;;;;4.60;3.23;;;;;;;23.44;30.10;95852.66;5071966;28;20192;-69
2021/06/04 09:30:35;;;;;;;4.80;3.03;;;;;;;23.35;31.89;95859.91;5055047;28;20324;-69
2021/06/04 09:33:12;;;;;;;5.10;2.70;;;;;;;23.90;29.46;95850.19;5051424;28;20295;-69
2021/06/04 09:36:05;;;;;;;5.33;2.77;;;;;;;23.86;29.25;95851.91;5066334;28;20207;-68
2021/06/04 09:38:38;;;;;;;6.53;3.17;;;;;;;23.62;30.32;95854.25;5069125;28;20580;-67
2021/06/04 09:41:24;;;;;;;8.40;2.97;;;;;;;23.90;29.25;95850.19;5071015;28;20245;-70
2021/06/04 09:44:17;;;;;;;6.97;3.17;;;;;;;23.86;30.00;95846.56;5065815;28;20652;-68
2021/06/04 09:46:50;;;;;;;3.37;2.70;;;;;;;23.35;29.07;95849.19;5050741;28;20200;-69
2021/06/04 09:49:27;;;;;;;10.40;3.20;;;;;;;23.50;30.85;95841.50;5058960;28;20196;-66
2021/06/04 09:51:57;;;;;;;5.97;3.00;;;;;;;23.95;31.22;95836.63;5070970;28;20214;-70
2021/06/04 09:54:28;;;;;;;3.97;3.00;;;;;;;23.60;29.54;95840.41;5070648;28;20214;-70
2021/06/04 09:57:14;;;;;;;4.90;3.00;;;;;;;24.03;29.24;95833.97;5070529;28;20214;-66
2021/06/04 09:59:41;;;;;;;5.63;2.77;;;;;;;24.40;29.88;95843.19;5059983;28;20199;-69
2021/06/04 10:02:35;;;;;;;4.43;3.00;;;;;;;23.46;29.00;95834.41;5069197;28;20327;-69
2021/06/04 10:05:28;;;;;;;4.40;2.77;;;;;;;24.27;30.07;95832.66;5057418;28;20295;-67
2021/06/04 10:08:13;;;;;;;5.63;3.13;;;;;;;23.66;28.39;95825.78;5064732;28;20246;-66
2021/06/04 10:10:40;;;;;;;8.87;3.03;;;;;;;23.89;28.75;95816.47;5070562;28;20208;-67
2021/06/04 10:13:32;;;;;;;5.03;3.20;;;;;;;24.06;30.24;95816.47;5055451;28;20196;-67
2021/06/04 10:16:02;;;;;;;5.20;2.97;;;;;;;24.40;29.94;95826.31;5061205;28;20223;-70
2021/06/04 10:18:39;;;;;;;4.70;3.07;;;;;;;24.85;30.41;95827.44;5056013;28;20202;-69
2021/06/04 10:21:24;;;;;;;9.07;3.03;;;;;;;25.24;30.37;95812.84;5060773;28;20204;-69
2021/06/04 10:23:54;;;;;;;5.43;3.30;;;;;;;24.91;29.57;95818.09;5063897;28;20203;-67
2021/06/04 10:26:35;;;;;;;8.20;3.10;;;;;;;24.93;28.82;95819.34;5062093;28;20199;-70
2021/06/04 10:29:08;;;;;;;6.03;3.20;;;;;;;25.05;29.29;95822.13;5069903;28;20598;-69
2021/06/04 10:31:37;;;;;;;3.83;3.13;;;;;;;24.92;29.66;95820.47;5070332;28;20289;-68
2021/06/04 10:34:11;;;;;;;7.40;3.27;;;;;;;24.91;30.02;95821.56;5064114;28;20224;-67
2021/06/04 10:36:43;;;;;;;3.77;3.27;;;;;;;24.63;30.05;95831.16;5062843;28;20207;-68
2021/06/04 10:39:16;;;;;;;5.80;2.90;;;;;;;25.05;29.53;95822.13;5061640;28;20644;-67
2021/06/04 10:42:02;;;;;;;5.87;2.73;;;;;;;24.65;28.84;95823.53;5065895;28;20631;-69
2021/06/04 10:44:44;;;;;;;7.50;3.03;;;;;;;24.94;29.45;95820.16;5059448;28;20680;-69
2021/06/04 10:47:22;;;;;;;3.70;3.10;;;;;;;25.08;28.20;95818.81;5068553;28;20222;-67
2021/06/04 10:50:00;;;;;;;6.50;2.80;;;;;;;25.14;28.00;95818.63;5069321;28;20214;-67
2021/06/04 10:52:33;;;;;;;5.83;3.30;;;;;;;25.04;29.54;95809.84;5070015;28;20677;-68
2021/06/04 10:55:06;;;;;;;5.30;3.20;;;;;;;25.25;29.23;95819.81;5069734;28;20192;-71
2021/06/04 10:57:51;;;;;;;4.90;2.80;;;;;;;25.13;30.26;95819.75;5069770;28;20195;-69
2021/06/04 11:00:24;;;;;;;7.70;3.43;;;;;;;25.35;29.74;95819.41;5069612;28;20200;-67
2021/06/04 11:03:13;;;;;;;8.37;3.20;;;;;;;25.13;30.00;95817.81;5070257;28;20204;-66
2021/06/04 11:05:49;;;;;;;6.07;3.17;;;;;;;24.98;29.03;95810.34;5060433;28;20189;-71
2021/06/04 11:08:42;;;;;;;6.33;3.20;;;;;;;24.87;30.27;95809.91;5049344;28;20696;-67
2021/06/04 11:11:27;;;;;;;7.50;3.40;;;;;;;24.76;30.42;95824.03;5050429;28;20224;-70
2021/06/04 11:14:12;;;;;;;4.30;3.20;;;;;;;24.70;31.00;95819.91;5049823;28;20227;-69
2021/06/04 11:17:24;;;;;;;9.20;3.57;;;;;;;24.82;30.13;95807.44;5049736;28;20681;-68
2021/06/04 11:20:00;;;;;;;5.13;2.77;;;;;;;25.05;29.43;95806.03;5042636;28;20208;-66
2021/06/04 11:23:08;;;;;;;10.30;3.43;;;;;;;23.81;29.41;95809.25;5065130;28;20192;-68
2021/06/04 11:25:58;;;;;;;6.30;3.50;;;;;;;24.55;30.23;95807.84;5068330;28;20214;-69
2021/06/04 11:28:34;;;;;;;8.03;3.43;;;;;;;24.73;30.97;95795.16;5068711;28;20219;-68
2021/06/04 11:31:06;;;;;;;4.70;3.00;;;;;;;24.47;29.81;95797.16;5057835;28;20254;-68
2021/06/04 11:33:35;;;;;;;4.83;2.93;;;;;;;24.39;30.23;95790.72;5053941;28;20184;-69
2021/06/04 11:36:25;;;;;;;6.30;3.33;;;;;;;24.65;30.87;95794.06;5050046;28;20222;-70
2021/06/04 11:38:59;;;;;;;6.83;3.20;;;;;;;24.61;31.23;95798.50;5069672;28;20195;-66
2021/06/04 11:41:35;;;;;;;7.93;3.50;;;;;;;24.98;30.90;95781.63;5070326;28;20215;-68
2021/06/04 11:44:15;;;;;;;7.40;3.53;;;;;;;25.05;31.31;95784.56;5062743;28;20193;-68
2021/06/04 11:46:42;;;;;;;5.37;2.80;;;;;;;24.63;29.37;95772.19;5064074;28;20203;-68
2021/06/04 11:49:13;;;;;;;7.43;3.30;;;;;;;24.91;30.28;95773.31;5069215;28;20203;-65
2021/06/04 11:51:47;;;;;;;4.77;2.80;;;;;;;25.29;31.13;95773.22;5055784;28;20258;-66
2021/06/04 11:54:27;;;;;;;8.33;3.13;;;;;;;25.37;29.58;95769.69;5055273;28;20197;-70
2021/06/04 11:56:58;;;;;;;9.07;3.07;;;;;;;25.37;29.10;95768.91;5054758;28;20591;-67
2021/06/04 11:59:47;;;;;;;4.93;3.10;;;;;;;25.67;28.42;95770.44;5056634;28;20194;-67